Schilde, Belgium
Current Conditions -  °F | °C
As of 7:20 AM on Monday 26 Jan 2015 (Local Time) from EBAW Reporting Station
Light Rain Light Rain  
Wind Chill: 36°   Ceiling: 200
Heat Index: 41°   Visibility: 0.62mi
Dew Point: 39°   Wind: 8mph
Humidity: 93%   Direction: 210°SSW
Pressure: 30.18"   Gusts: NA
Location:  51.24°N, 4.58°E
Report Text: EBAW 260620Z 21007KT 1000 R11/1900N R29/P2000N -DZRA BR BKN002 BKN003 05/04 Q1022 TEMPO 0700 RADZ
Loading
Personal Weather Stations






























Interactive Weather Map New forecast layout! Learn more

10-Day Weather Forecast

Advertisements
Track Severe Weather on mobile